Strona główna
METAR-TAF:

METAR-TAF

Lotnisko :

Calais, Francja

Szerokość geograficzna: 50-57-39N, Długość geograficzna: 001-57-05E, wysokość: 4 m

Aktualna obserwacja pogody

Raport powstał 38 minut temu, godzina 14:00 UTC
Wiatr 16 kt od zachodnio-południowy zachód
Temperatura 13°C
Wilgotność 82%
Ciśnienie 999 hPa
Widzialność 10 km lub więcej
Przerywane chmury na wysokości 1600 ft
Przerywane chmury na wysokości 3000 ft
Przerywane chmury na wysokości 4600 ft

METAR: LFAC 151400Z AUTO 24016KT 9999 BKN016 BKN030 BKN046 13/10 Q0999

czas: 16:38 (14:38 UTC)


TAF: brakujący

Obserwacja i prognoza pogody dla ponad 4000 lotnisk (raport METAR i TAF).

Dostępne stacje oznaczono żółtymi i czerwonymi punktami na mapie.

Najedź kursorem aby zobaczyć nazwę stacji.

Kliknij aby zobaczyć obserwacje i prognozy pogody.

Aby zmienić mapę: kliknij na zielony przycisk z czarnym krzyżykiem, aby powiększyć; na zielony przycisk z myślnikiem, aby pomniejszyć; na zielone strzałki, aby przejść do map sąsiednich.


METAR-TAF: